sensor_id;sensor_type;location;lat;lon;timestamp;pressure;altitude;pressure_sealevel;temperature
69704;BMP280;56967;43.538;-5.646;2023-03-14T00:02:10;101424.13;;;16.04
69704;BMP280;56967;43.538;-5.646;2023-03-14T00:04:36;101428.63;;;16.04
69704;BMP280;56967;43.538;-5.646;2023-03-14T00:07:01;101425.97;;;16.04
69704;BMP280;56967;43.538;-5.646;2023-03-14T00:09:27;101435.19;;;16.13
69704;BMP280;56967;43.538;-5.646;2023-03-14T00:11:55;101451.66;;;16.26
69704;BMP280;56967;43.538;-5.646;2023-03-14T00:14:20;101447.88;;;16.22
69704;BMP280;56967;43.538;-5.646;2023-03-14T00:16:46;101462.72;;;16.35
69704;BMP280;56967;43.538;-5.646;2023-03-14T00:19:12;101458.22;;;16.35
69704;BMP280;56967;43.538;-5.646;2023-03-14T00:21:37;101468.63;;;16.37
69704;BMP280;56967;43.538;-5.646;2023-03-14T00:24:03;101472.19;;;16.31
69704;BMP280;56967;43.538;-5.646;2023-03-14T00:26:29;101476.81;;;16.35
69704;BMP280;56967;43.538;-5.646;2023-03-14T00:28:54;101487.63;;;16.45
69704;BMP280;56967;43.538;-5.646;2023-03-14T00:31:21;101475.88;;;16.41
69704;BMP280;56967;43.538;-5.646;2023-03-14T00:33:46;101478.78;;;16.28
69704;BMP280;56967;43.538;-5.646;2023-03-14T00:36:14;101468.19;;;16.17
69704;BMP280;56967;43.538;-5.646;2023-03-14T00:38:41;101487.88;;;16.21
69704;BMP280;56967;43.538;-5.646;2023-03-14T00:41:10;101487.31;;;16.19
69704;BMP280;56967;43.538;-5.646;2023-03-14T00:43:36;101497.00;;;16.13
69704;BMP280;56967;43.538;-5.646;2023-03-14T00:46:01;101499.66;;;16.13
69704;BMP280;56967;43.538;-5.646;2023-03-14T00:48:27;101504.72;;;16.03
69704;BMP280;56967;43.538;-5.646;2023-03-14T00:50:53;101504.50;;;16.05
69704;BMP280;56967;43.538;-5.646;2023-03-14T00:53:18;101500.94;;;15.99
69704;BMP280;56967;43.538;-5.646;2023-03-14T00:55:44;101512.09;;;16.01
69704;BMP280;56967;43.538;-5.646;2023-03-14T00:58:12;101515.69;;;16.07
69704;BMP280;56967;43.538;-5.646;2023-03-14T01:00:38;101522.03;;;16.06
69704;BMP280;56967;43.538;-5.646;2023-03-14T01:03:04;101535.63;;;15.97
69704;BMP280;56967;43.538;-5.646;2023-03-14T01:05:30;101538.81;;;15.88
69704;BMP280;56967;43.538;-5.646;2023-03-14T01:07:56;101539.88;;;15.87
69704;BMP280;56967;43.538;-5.646;2023-03-14T01:10:22;101545.56;;;15.90
69704;BMP280;56967;43.538;-5.646;2023-03-14T01:12:48;101549.47;;;15.99
69704;BMP280;56967;43.538;-5.646;2023-03-14T01:15:13;101552.94;;;16.00
69704;BMP280;56967;43.538;-5.646;2023-03-14T01:17:39;101546.38;;;16.14
69704;BMP280;56967;43.538;-5.646;2023-03-14T01:20:06;101559.06;;;16.12
69704;BMP280;56967;43.538;-5.646;2023-03-14T01:22:37;101557.44;;;16.11
69704;BMP280;56967;43.538;-5.646;2023-03-14T01:25:06;101553.16;;;15.98
69704;BMP280;56967;43.538;-5.646;2023-03-14T01:27:32;101565.06;;;15.96
69704;BMP280;56967;43.538;-5.646;2023-03-14T01:29:58;101574.25;;;15.93
69704;BMP280;56967;43.538;-5.646;2023-03-14T01:32:24;101572.72;;;15.86
69704;BMP280;56967;43.538;-5.646;2023-03-14T01:34:50;101579.41;;;15.77
69704;BMP280;56967;43.538;-5.646;2023-03-14T01:37:16;101570.53;;;15.83
69704;BMP280;56967;43.538;-5.646;2023-03-14T01:39:41;101581.91;;;15.72
69704;BMP280;56967;43.538;-5.646;2023-03-14T01:42:07;101574.97;;;15.71
69704;BMP280;56967;43.538;-5.646;2023-03-14T01:44:52;101578.09;;;15.68
69704;BMP280;56967;43.538;-5.646;2023-03-14T01:47:19;101589.25;;;15.70
69704;BMP280;56967;43.538;-5.646;2023-03-14T01:49:46;101578.66;;;15.70
69704;BMP280;56967;43.538;-5.646;2023-03-14T01:52:57;101577.44;;;15.72
69704;BMP280;56967;43.538;-5.646;2023-03-14T01:55:09;101583.75;;;15.71
69704;BMP280;56967;43.538;-5.646;2023-03-14T01:57:41;101589.56;;;15.80
69704;BMP280;56967;43.538;-5.646;2023-03-14T02:00:13;101591.16;;;15.81
69704;BMP280;56967;43.538;-5.646;2023-03-14T02:02:44;101588.63;;;15.86
69704;BMP280;56967;43.538;-5.646;2023-03-14T02:05:12;101590.94;;;15.82
69704;BMP280;56967;43.538;-5.646;2023-03-14T02:10:09;101594.81;;;15.68
69704;BMP280;56967;43.538;-5.646;2023-03-14T02:12:36;101598.03;;;15.70
69704;BMP280;56967;43.538;-5.646;2023-03-14T02:15:03;101601.03;;;15.74
69704;BMP280;56967;43.538;-5.646;2023-03-14T02:17:28;101593.22;;;15.79
69704;BMP280;56967;43.538;-5.646;2023-03-14T02:22:33;101605.50;;;15.62
69704;BMP280;56967;43.538;-5.646;2023-03-14T02:27:51;101606.47;;;15.49
69704;BMP280;56967;43.538;-5.646;2023-03-14T02:30:22;101611.97;;;15.48
69704;BMP280;56967;43.538;-5.646;2023-03-14T02:32:55;101615.31;;;15.43
69704;BMP280;56967;43.538;-5.646;2023-03-14T02:35:25;101611.97;;;15.36
69704;BMP280;56967;43.538;-5.646;2023-03-14T02:37:56;101612.53;;;15.38
69704;BMP280;56967;43.538;-5.646;2023-03-14T02:40:23;101623.59;;;15.35
69704;BMP280;56967;43.538;-5.646;2023-03-14T02:42:48;101610.53;;;15.33
69704;BMP280;56967;43.538;-5.646;2023-03-14T02:47:44;101615.78;;;15.22
69704;BMP280;56967;43.538;-5.646;2023-03-14T02:50:15;101611.22;;;15.11
69704;BMP280;56967;43.538;-5.646;2023-03-14T02:52:43;101619.97;;;15.11
69704;BMP280;56967;43.538;-5.646;2023-03-14T02:55:09;101610.88;;;15.07
69704;BMP280;56967;43.538;-5.646;2023-03-14T02:57:34;101600.72;;;15.04
69704;BMP280;56967;43.538;-5.646;2023-03-14T03:00:01;101596.94;;;14.94
69704;BMP280;56967;43.538;-5.646;2023-03-14T03:02:29;101609.16;;;14.95
69704;BMP280;56967;43.538;-5.646;2023-03-14T03:04:55;101600.34;;;15.01
69704;BMP280;56967;43.538;-5.646;2023-03-14T03:07:20;101598.78;;;14.93
69704;BMP280;56967;43.538;-5.646;2023-03-14T03:09:46;101591.03;;;14.92
69704;BMP280;56967;43.538;-5.646;2023-03-14T03:12:12;101591.59;;;14.82
69704;BMP280;56967;43.538;-5.646;2023-03-14T03:14:37;101586.81;;;14.91
69704;BMP280;56967;43.538;-5.646;2023-03-14T03:17:04;101586.94;;;14.78
69704;BMP280;56967;43.538;-5.646;2023-03-14T03:19:30;101585.84;;;14.85
69704;BMP280;56967;43.538;-5.646;2023-03-14T03:21:56;101572.44;;;14.80
69704;BMP280;56967;43.538;-5.646;2023-03-14T03:24:21;101585.03;;;14.85
69704;BMP280;56967;43.538;-5.646;2023-03-14T03:26:47;101587.69;;;14.85
69704;BMP280;56967;43.538;-5.646;2023-03-14T03:29:12;101590.34;;;14.85
69704;BMP280;56967;43.538;-5.646;2023-03-14T03:31:38;101584.97;;;14.91
69704;BMP280;56967;43.538;-5.646;2023-03-14T03:34:04;101603.06;;;14.94
69704;BMP280;56967;43.538;-5.646;2023-03-14T03:36:29;101599.66;;;15.05
69704;BMP280;56967;43.538;-5.646;2023-03-14T03:38:55;101603.63;;;15.14
69704;BMP280;56967;43.538;-5.646;2023-03-14T03:41:20;101598.06;;;15.22
69704;BMP280;56967;43.538;-5.646;2023-03-14T03:43:46;101594.88;;;15.32
69704;BMP280;56967;43.538;-5.646;2023-03-14T03:46:11;101601.25;;;15.43
69704;BMP280;56967;43.538;-5.646;2023-03-14T03:48:37;101605.81;;;15.54
69704;BMP280;56967;43.538;-5.646;2023-03-14T03:51:03;101613.91;;;15.59
69704;BMP280;56967;43.538;-5.646;2023-03-14T03:53:28;101611.06;;;15.72
69704;BMP280;56967;43.538;-5.646;2023-03-14T03:55:54;101610.66;;;15.57
69704;BMP280;56967;43.538;-5.646;2023-03-14T03:58:19;101610.31;;;15.65
69704;BMP280;56967;43.538;-5.646;2023-03-14T04:00:45;101607.34;;;15.43
69704;BMP280;56967;43.538;-5.646;2023-03-14T04:03:10;101601.19;;;15.31
69704;BMP280;56967;43.538;-5.646;2023-03-14T04:05:36;101600.56;;;15.36
69704;BMP280;56967;43.538;-5.646;2023-03-14T04:08:02;101599.00;;;15.10
69704;BMP280;56967;43.538;-5.646;2023-03-14T04:10:29;101586.78;;;15.27
69704;BMP280;56967;43.538;-5.646;2023-03-14T04:12:54;101601.84;;;15.45
69704;BMP280;56967;43.538;-5.646;2023-03-14T04:15:20;101608.66;;;15.41
69704;BMP280;56967;43.538;-5.646;2023-03-14T04:17:45;101606.53;;;15.43
69704;BMP280;56967;43.538;-5.646;2023-03-14T04:20:11;101606.19;;;15.39
69704;BMP280;56967;43.538;-5.646;2023-03-14T04:22:38;101614.28;;;15.44
69704;BMP280;56967;43.538;-5.646;2023-03-14T04:25:05;101616.06;;;15.32
69704;BMP280;56967;43.538;-5.646;2023-03-14T04:27:31;101619.91;;;15.36
69704;BMP280;56967;43.538;-5.646;2023-03-14T04:29:56;101618.28;;;15.35
69704;BMP280;56967;43.538;-5.646;2023-03-14T04:32:22;101612.47;;;15.26
69704;BMP280;56967;43.538;-5.646;2023-03-14T04:34:47;101614.16;;;15.21
69704;BMP280;56967;43.538;-5.646;2023-03-14T04:37:13;101605.09;;;15.10
69704;BMP280;56967;43.538;-5.646;2023-03-14T04:39:38;101606.81;;;15.05
69704;BMP280;56967;43.538;-5.646;2023-03-14T04:42:04;101603.75;;;15.08
69704;BMP280;56967;43.538;-5.646;2023-03-14T04:44:30;101599.66;;;15.05
69704;BMP280;56967;43.538;-5.646;2023-03-14T04:46:55;101604.53;;;14.90
69704;BMP280;56967;43.538;-5.646;2023-03-14T04:49:21;101599.25;;;14.90
69704;BMP280;56967;43.538;-5.646;2023-03-14T04:51:46;101595.84;;;14.83
69704;BMP280;56967;43.538;-5.646;2023-03-14T04:54:12;101590.09;;;14.68
69704;BMP280;56967;43.538;-5.646;2023-03-14T04:56:37;101590.09;;;14.68
69704;BMP280;56967;43.538;-5.646;2023-03-14T04:59:04;101594.75;;;14.73
69704;BMP280;56967;43.538;-5.646;2023-03-14T05:01:30;101595.91;;;14.77
69704;BMP280;56967;43.538;-5.646;2023-03-14T05:03:55;101595.13;;;14.69
69704;BMP280;56967;43.538;-5.646;2023-03-14T05:06:21;101588.22;;;14.68
69704;BMP280;56967;43.538;-5.646;2023-03-14T05:08:46;101594.94;;;14.71
69704;BMP280;56967;43.538;-5.646;2023-03-14T05:11:12;101590.16;;;14.61
69704;BMP280;56967;43.538;-5.646;2023-03-14T05:13:38;101590.09;;;14.68
69704;BMP280;56967;43.538;-5.646;2023-03-14T05:16:08;101588.03;;;14.70
69704;BMP280;56967;43.538;-5.646;2023-03-14T05:18:35;101586.66;;;14.67
69704;BMP280;56967;43.538;-5.646;2023-03-14T05:21:01;101582.84;;;14.57
69704;BMP280;56967;43.538;-5.646;2023-03-14T05:23:27;101577.28;;;14.65
69704;BMP280;56967;43.538;-5.646;2023-03-14T05:25:53;101582.41;;;14.60
69704;BMP280;56967;43.538;-5.646;2023-03-14T05:28:18;101583.34;;;14.47
69704;BMP280;56967;43.538;-5.646;2023-03-14T05:30:44;101582.34;;;14.48
69704;BMP280;56967;43.538;-5.646;2023-03-14T05:33:10;101571.50;;;14.32
69704;BMP280;56967;43.538;-5.646;2023-03-14T05:35:35;101583.34;;;14.47
69704;BMP280;56967;43.538;-5.646;2023-03-14T05:38:01;101583.06;;;14.55
69704;BMP280;56967;43.538;-5.646;2023-03-14T05:40:26;101586.09;;;14.59
69704;BMP280;56967;43.538;-5.646;2023-03-14T05:42:52;101589.25;;;14.49
69704;BMP280;56967;43.538;-5.646;2023-03-14T05:45:18;101587.28;;;14.63
69704;BMP280;56967;43.538;-5.646;2023-03-14T05:47:43;101589.28;;;14.43
69704;BMP280;56967;43.538;-5.646;2023-03-14T05:50:10;101586.84;;;14.66
69704;BMP280;56967;43.538;-5.646;2023-03-14T05:52:36;101596.50;;;14.79
69704;BMP280;56967;43.538;-5.646;2023-03-14T05:55:02;101596.09;;;14.75
69704;BMP280;56967;43.538;-5.646;2023-03-14T05:57:27;101595.69;;;14.78
69704;BMP280;56967;43.538;-5.646;2023-03-14T05:59:53;101592.25;;;14.78
69704;BMP280;56967;43.538;-5.646;2023-03-14T06:02:19;101591.25;;;14.54
69704;BMP280;56967;43.538;-5.646;2023-03-14T06:04:44;101598.13;;;14.55
69704;BMP280;56967;43.538;-5.646;2023-03-14T06:07:10;101592.47;;;14.51
69704;BMP280;56967;43.538;-5.646;2023-03-14T06:09:35;101594.94;;;14.71
69704;BMP280;56967;43.538;-5.646;2023-03-14T06:12:01;101593.81;;;14.60
69704;BMP280;56967;43.538;-5.646;2023-03-14T06:14:26;101594.63;;;14.61
69704;BMP280;56967;43.538;-5.646;2023-03-14T06:16:52;101591.94;;;14.43
69704;BMP280;56967;43.538;-5.646;2023-03-14T06:19:25;101604.34;;;14.42
69704;BMP280;56967;43.538;-5.646;2023-03-14T06:21:51;101602.88;;;14.46
69704;BMP280;56967;43.538;-5.646;2023-03-14T06:24:17;101603.97;;;14.63
69704;BMP280;56967;43.538;-5.646;2023-03-14T06:26:43;101613.34;;;14.59
69704;BMP280;56967;43.538;-5.646;2023-03-14T06:29:08;101605.28;;;14.54
69704;BMP280;56967;43.538;-5.646;2023-03-14T06:31:35;101613.13;;;14.67
69704;BMP280;56967;43.538;-5.646;2023-03-14T06:34:00;101614.75;;;14.87
69704;BMP280;56967;43.538;-5.646;2023-03-14T06:36:26;101625.09;;;14.88
69704;BMP280;56967;43.538;-5.646;2023-03-14T06:38:51;101634.09;;;15.05
69704;BMP280;56967;43.538;-5.646;2023-03-14T06:41:17;101640.50;;;15.16
69704;BMP280;56967;43.538;-5.646;2023-03-14T06:43:42;101654.41;;;15.11
69704;BMP280;56967;43.538;-5.646;2023-03-14T06:46:08;101657.19;;;15.16
69704;BMP280;56967;43.538;-5.646;2023-03-14T06:48:34;101658.31;;;15.27
69704;BMP280;56967;43.538;-5.646;2023-03-14T06:50:59;101663.66;;;15.39
69704;BMP280;56967;43.538;-5.646;2023-03-14T06:53:25;101671.09;;;15.48
69704;BMP280;56967;43.538;-5.646;2023-03-14T06:55:50;101684.72;;;15.52
69704;BMP280;56967;43.538;-5.646;2023-03-14T06:58:16;101696.91;;;15.71
69704;BMP280;56967;43.538;-5.646;2023-03-14T07:00:42;101698.03;;;15.81
69704;BMP280;56967;43.538;-5.646;2023-03-14T07:03:07;101707.22;;;15.79
69704;BMP280;56967;43.538;-5.646;2023-03-14T07:05:33;101707.00;;;15.80
69704;BMP280;56967;43.538;-5.646;2023-03-14T07:07:58;101708.53;;;15.88
69704;BMP280;56967;43.538;-5.646;2023-03-14T07:10:24;101721.06;;;15.81
69704;BMP280;56967;43.538;-5.646;2023-03-14T07:12:49;101719.22;;;15.81
69704;BMP280;56967;43.538;-5.646;2023-03-14T07:15:15;101721.31;;;15.79
69704;BMP280;56967;43.538;-5.646;2023-03-14T07:17:40;101731.84;;;15.97
69704;BMP280;56967;43.538;-5.646;2023-03-14T07:20:06;101730.47;;;16.25
69704;BMP280;56967;43.538;-5.646;2023-03-14T07:22:33;101737.19;;;16.39
69704;BMP280;56967;43.538;-5.646;2023-03-14T07:24:58;101784.63;;;17.58
69704;BMP280;56967;43.538;-5.646;2023-03-14T07:27:24;101801.50;;;21.73
69704;BMP280;56967;43.538;-5.646;2023-03-14T07:29:49;101802.53;;;19.35
69704;BMP280;56967;43.538;-5.646;2023-03-14T07:32:15;101864.53;;;22.36
69704;BMP280;56967;43.538;-5.646;2023-03-14T07:34:41;101896.03;;;26.84
69704;BMP280;56967;43.538;-5.646;2023-03-14T07:37:07;101921.78;;;29.02
69704;BMP280;56967;43.538;-5.646;2023-03-14T07:39:32;101919.63;;;31.15
69704;BMP280;56967;43.538;-5.646;2023-03-14T07:41:58;101941.78;;;31.79
69704;BMP280;56967;43.538;-5.646;2023-03-14T07:44:24;101949.91;;;33.35
69704;BMP280;56967;43.538;-5.646;2023-03-14T07:46:49;101957.59;;;34.04
69704;BMP280;56967;43.538;-5.646;2023-03-14T07:49:15;101975.91;;;36.62
69704;BMP280;56967;43.538;-5.646;2023-03-14T07:51:40;101987.94;;;36.54
69704;BMP280;56967;43.538;-5.646;2023-03-14T07:54:06;101990.19;;;36.78
69704;BMP280;56967;43.538;-5.646;2023-03-14T07:56:31;101992.91;;;37.40
69704;BMP280;56967;43.538;-5.646;2023-03-14T07:58:57;102003.31;;;38.08
69704;BMP280;56967;43.538;-5.646;2023-03-14T08:01:23;102016.41;;;39.60
69704;BMP280;56967;43.538;-5.646;2023-03-14T08:03:48;102023.06;;;40.29
69704;BMP280;56967;43.538;-5.646;2023-03-14T08:06:14;102033.75;;;41.06
69704;BMP280;56967;43.538;-5.646;2023-03-14T08:08:40;102049.91;;;39.90
69704;BMP280;56967;43.538;-5.646;2023-03-14T08:11:06;102051.09;;;39.89
69704;BMP280;56967;43.538;-5.646;2023-03-14T08:13:34;102063.03;;;40.90
69704;BMP280;56967;43.538;-5.646;2023-03-14T08:16:00;102065.78;;;40.90
69704;BMP280;56967;43.538;-5.646;2023-03-14T08:18:26;102077.66;;;40.76
69704;BMP280;56967;43.538;-5.646;2023-03-14T08:20:52;102051.00;;;42.73
69704;BMP280;56967;43.538;-5.646;2023-03-14T08:23:17;101973.91;;;36.59
69704;BMP280;56967;43.538;-5.646;2023-03-14T08:25:48;102072.66;;;37.91
69704;BMP280;56967;43.538;-5.646;2023-03-14T08:28:14;101951.72;;;33.04
69704;BMP280;56967;43.538;-5.646;2023-03-14T08:30:39;101941.38;;;28.91
69704;BMP280;56967;43.538;-5.646;2023-03-14T08:33:05;101954.91;;;26.04
69704;BMP280;56967;43.538;-5.646;2023-03-14T08:35:30;101969.25;;;25.99
69704;BMP280;56967;43.538;-5.646;2023-03-14T08:37:56;101958.34;;;25.25
69704;BMP280;56967;43.538;-5.646;2023-03-14T08:40:21;101974.41;;;24.49
69704;BMP280;56967;43.538;-5.646;2023-03-14T08:42:47;101994.84;;;24.79
69704;BMP280;56967;43.538;-5.646;2023-03-14T08:45:15;101994.56;;;25.80
69704;BMP280;56967;43.538;-5.646;2023-03-14T08:47:42;102011.66;;;29.86
69704;BMP280;56967;43.538;-5.646;2023-03-14T08:50:09;102075.78;;;29.82
69704;BMP280;56967;43.538;-5.646;2023-03-14T08:52:34;102053.94;;;32.98
69704;BMP280;56967;43.538;-5.646;2023-03-14T08:55:00;102018.72;;;33.17
69704;BMP280;56967;43.538;-5.646;2023-03-14T08:57:26;101986.44;;;28.87
69704;BMP280;56967;43.538;-5.646;2023-03-14T08:59:55;101991.53;;;27.15
69704;BMP280;56967;43.538;-5.646;2023-03-14T09:02:21;101990.09;;;25.52
69704;BMP280;56967;43.538;-5.646;2023-03-14T09:04:47;102001.06;;;24.41
69704;BMP280;56967;43.538;-5.646;2023-03-14T09:07:12;101997.50;;;23.27
69704;BMP280;56967;43.538;-5.646;2023-03-14T09:09:38;101997.53;;;22.62
69704;BMP280;56967;43.538;-5.646;2023-03-14T09:12:04;101995.03;;;22.35
69704;BMP280;56967;43.538;-5.646;2023-03-14T09:14:30;102009.31;;;22.81
69704;BMP280;56967;43.538;-5.646;2023-03-14T09:16:57;102011.56;;;23.88
69704;BMP280;56967;43.538;-5.646;2023-03-14T09:19:22;102012.13;;;24.39
69704;BMP280;56967;43.538;-5.646;2023-03-14T09:21:48;102005.56;;;24.06
69704;BMP280;56967;43.538;-5.646;2023-03-14T09:24:14;102003.34;;;23.50
69704;BMP280;56967;43.538;-5.646;2023-03-14T09:26:39;101994.56;;;22.69
69704;BMP280;56967;43.538;-5.646;2023-03-14T09:29:05;102005.03;;;22.70
69704;BMP280;56967;43.538;-5.646;2023-03-14T09:31:31;101997.56;;;21.95
69704;BMP280;56967;43.538;-5.646;2023-03-14T09:33:56;102008.22;;;21.85
69704;BMP280;56967;43.538;-5.646;2023-03-14T09:36:22;102003.22;;;21.94
69704;BMP280;56967;43.538;-5.646;2023-03-14T09:38:47;102009.38;;;21.52
69704;BMP280;56967;43.538;-5.646;2023-03-14T09:41:39;102011.72;;;21.86
69704;BMP280;56967;43.538;-5.646;2023-03-14T09:44:21;102014.66;;;22.61
69704;BMP280;56967;43.538;-5.646;2023-03-14T09:46:52;102014.91;;;22.54
69704;BMP280;56967;43.538;-5.646;2023-03-14T09:49:28;102025.06;;;22.42
69704;BMP280;56967;43.538;-5.646;2023-03-14T09:51:58;102009.72;;;22.23
69704;BMP280;56967;43.538;-5.646;2023-03-14T09:56:59;102025.81;;;22.23
69704;BMP280;56967;43.538;-5.646;2023-03-14T09:59:26;102027.78;;;22.68
69704;BMP280;56967;43.538;-5.646;2023-03-14T10:01:52;102029.41;;;23.54
69704;BMP280;56967;43.538;-5.646;2023-03-14T10:04:21;102031.56;;;23.62
69704;BMP280;56967;43.538;-5.646;2023-03-14T10:06:48;102033.75;;;23.25
69704;BMP280;56967;43.538;-5.646;2023-03-14T10:09:20;102029.13;;;23.56
69704;BMP280;56967;43.538;-5.646;2023-03-14T10:11:55;102036.16;;;22.91
69704;BMP280;56967;43.538;-5.646;2023-03-14T10:14:36;102046.09;;;23.11
69704;BMP280;56967;43.538;-5.646;2023-03-14T10:17:11;102046.34;;;23.39
69704;BMP280;56967;43.538;-5.646;2023-03-14T10:19:38;102049.31;;;23.48
69704;BMP280;56967;43.538;-5.646;2023-03-14T10:22:16;102050.03;;;22.58
69704;BMP280;56967;43.538;-5.646;2023-03-14T10:24:46;102052.47;;;23.65
69704;BMP280;56967;43.538;-5.646;2023-03-14T10:27:21;102046.31;;;23.50
69704;BMP280;56967;43.538;-5.646;2023-03-14T10:29:59;102055.97;;;23.66
69704;BMP280;56967;43.538;-5.646;2023-03-14T10:32:32;102062.66;;;23.68
69704;BMP280;56967;43.538;-5.646;2023-03-14T10:35:20;102063.81;;;23.12
69704;BMP280;56967;43.538;-5.646;2023-03-14T10:37:56;102070.22;;;23.36
69704;BMP280;56967;43.538;-5.646;2023-03-14T10:40:27;102061.09;;;23.52
69704;BMP280;56967;43.538;-5.646;2023-03-14T10:42:53;102066.97;;;22.79
69704;BMP280;56967;43.538;-5.646;2023-03-14T10:45:43;102066.22;;;22.98
69704;BMP280;56967;43.538;-5.646;2023-03-14T10:53:25;102055.22;;;23.00
69704;BMP280;56967;43.538;-5.646;2023-03-14T10:55:51;102050.31;;;22.72
69704;BMP280;56967;43.538;-5.646;2023-03-14T10:58:22;102054.59;;;22.47
69704;BMP280;56967;43.538;-5.646;2023-03-14T11:00:54;102042.38;;;22.10
69704;BMP280;56967;43.538;-5.646;2023-03-14T11:03:23;102050.84;;;21.92
69704;BMP280;56967;43.538;-5.646;2023-03-14T11:08:32;102040.22;;;21.23
69704;BMP280;56967;43.538;-5.646;2023-03-14T11:11:21;102045.84;;;21.27
69704;BMP280;56967;43.538;-5.646;2023-03-14T11:22:06;102038.59;;;20.95
69704;BMP280;56967;43.538;-5.646;2023-03-14T11:27:17;102046.78;;;20.84
69704;BMP280;56967;43.538;-5.646;2023-03-14T11:40:58;102037.75;;;22.82
69704;BMP280;56967;43.538;-5.646;2023-03-14T11:43:34;102030.47;;;22.63
69704;BMP280;56967;43.538;-5.646;2023-03-14T11:46:10;102036.25;;;22.19
69704;BMP280;56967;43.538;-5.646;2023-03-14T11:51:36;102041.44;;;21.11
69704;BMP280;56967;43.538;-5.646;2023-03-14T11:57:02;102031.38;;;21.28
69704;BMP280;56967;43.538;-5.646;2023-03-14T11:59:45;102019.09;;;21.32
69704;BMP280;56967;43.538;-5.646;2023-03-14T12:02:15;102023.97;;;21.40
69704;BMP280;56967;43.538;-5.646;2023-03-14T12:07:23;102031.03;;;21.14
69704;BMP280;56967;43.538;-5.646;2023-03-14T12:09:52;102022.38;;;21.34
69704;BMP280;56967;43.538;-5.646;2023-03-14T12:12:24;102016.97;;;21.65
69704;BMP280;56967;43.538;-5.646;2023-03-14T12:15:01;102012.88;;;21.58
69704;BMP280;56967;43.538;-5.646;2023-03-14T12:17:38;102018.16;;;21.95
69704;BMP280;56967;43.538;-5.646;2023-03-14T12:22:50;102003.41;;;21.82
69704;BMP280;56967;43.538;-5.646;2023-03-14T12:25:37;101998.06;;;21.87
69704;BMP280;56967;43.538;-5.646;2023-03-14T12:28:03;101999.66;;;21.41
69704;BMP280;56967;43.538;-5.646;2023-03-14T12:30:31;101995.81;;;21.27
69704;BMP280;56967;43.538;-5.646;2023-03-14T12:35:40;101999.41;;;20.79
69704;BMP280;56967;43.538;-5.646;2023-03-14T12:38:14;101998.50;;;20.69
69704;BMP280;56967;43.538;-5.646;2023-03-14T12:43:34;101984.50;;;21.15
69704;BMP280;56967;43.538;-5.646;2023-03-14T12:46:14;101981.50;;;20.80
69704;BMP280;56967;43.538;-5.646;2023-03-14T12:48:42;101979.72;;;20.64
69704;BMP280;56967;43.538;-5.646;2023-03-14T12:51:30;101978.56;;;20.81
69704;BMP280;56967;43.538;-5.646;2023-03-14T12:59:47;101973.16;;;21.08
69704;BMP280;56967;43.538;-5.646;2023-03-14T13:02:20;101984.19;;;20.80
69704;BMP280;56967;43.538;-5.646;2023-03-14T13:05:01;101981.63;;;21.27
69704;BMP280;56967;43.538;-5.646;2023-03-14T13:13:02;101957.44;;;20.80
69704;BMP280;56967;43.538;-5.646;2023-03-14T13:15:44;101958.81;;;20.82
69704;BMP280;56967;43.538;-5.646;2023-03-14T13:18:29;101962.94;;;20.68
69704;BMP280;56967;43.538;-5.646;2023-03-14T13:21:03;101952.25;;;21.00
69704;BMP280;56967;43.538;-5.646;2023-03-14T13:23:32;101949.34;;;21.02
69704;BMP280;56967;43.538;-5.646;2023-03-14T13:25:59;101946.16;;;21.05
69704;BMP280;56967;43.538;-5.646;2023-03-14T13:28:27;101940.56;;;20.74
69704;BMP280;56967;43.538;-5.646;2023-03-14T13:31:02;101935.22;;;20.74
69704;BMP280;56967;43.538;-5.646;2023-03-14T13:33:28;101945.09;;;20.74
69704;BMP280;56967;43.538;-5.646;2023-03-14T13:35:56;101947.03;;;20.83
69704;BMP280;56967;43.538;-5.646;2023-03-14T13:38:24;101942.19;;;21.07
69704;BMP280;56967;43.538;-5.646;2023-03-14T13:40:51;101941.66;;;21.10
69704;BMP280;56967;43.538;-5.646;2023-03-14T13:43:40;101936.53;;;21.09
69704;BMP280;56967;43.538;-5.646;2023-03-14T13:46:12;101941.47;;;21.22
69704;BMP280;56967;43.538;-5.646;2023-03-14T13:48:47;101936.88;;;21.17
69704;BMP280;56967;43.538;-5.646;2023-03-14T13:51:15;101932.97;;;21.30
69704;BMP280;56967;43.538;-5.646;2023-03-14T13:53:48;101928.22;;;21.42
69704;BMP280;56967;43.538;-5.646;2023-03-14T13:56:16;101934.53;;;21.21
69704;BMP280;56967;43.538;-5.646;2023-03-14T13:58:42;101928.25;;;21.05
69704;BMP280;56967;43.538;-5.646;2023-03-14T14:01:34;101930.19;;;21.15
69704;BMP280;56967;43.538;-5.646;2023-03-14T14:04:13;101935.28;;;21.16
69704;BMP280;56967;43.538;-5.646;2023-03-14T14:06:46;101936.78;;;21.02
69704;BMP280;56967;43.538;-5.646;2023-03-14T14:09:15;101932.09;;;20.87
69704;BMP280;56967;43.538;-5.646;2023-03-14T14:12:03;101927.19;;;21.06
69704;BMP280;56967;43.538;-5.646;2023-03-14T14:14:38;101925.81;;;21.03
69704;BMP280;56967;43.538;-5.646;2023-03-14T14:17:08;101923.44;;;21.02
69704;BMP280;56967;43.538;-5.646;2023-03-14T14:19:35;101920.81;;;21.07
69704;BMP280;56967;43.538;-5.646;2023-03-14T14:22:02;101924.53;;;21.06
69704;BMP280;56967;43.538;-5.646;2023-03-14T14:24:30;101931.34;;;21.29
69704;BMP280;56967;43.538;-5.646;2023-03-14T14:27:15;101923.66;;;21.00
69704;BMP280;56967;43.538;-5.646;2023-03-14T14:29:43;101926.28;;;21.32
69704;BMP280;56967;43.538;-5.646;2023-03-14T14:32:12;101928.50;;;21.45
69704;BMP280;56967;43.538;-5.646;2023-03-14T14:37:27;101929.72;;;20.59
69704;BMP280;56967;43.538;-5.646;2023-03-14T14:39:58;101929.91;;;20.79
69704;BMP280;56967;43.538;-5.646;2023-03-14T14:42:27;101923.59;;;20.90
69704;BMP280;56967;43.538;-5.646;2023-03-14T14:44:54;101930.94;;;20.47
69704;BMP280;56967;43.538;-5.646;2023-03-14T14:47:24;101929.16;;;20.09
69704;BMP280;56967;43.538;-5.646;2023-03-14T14:49:51;101922.63;;;20.00
69704;BMP280;56967;43.538;-5.646;2023-03-14T14:55:00;101919.66;;;19.36
69704;BMP280;56967;43.538;-5.646;2023-03-14T14:57:28;101916.19;;;19.19
69704;BMP280;56967;43.538;-5.646;2023-03-14T15:00:03;101916.75;;;19.38
69704;BMP280;56967;43.538;-5.646;2023-03-14T15:02:45;101909.00;;;19.03
69704;BMP280;56967;43.538;-5.646;2023-03-14T15:05:16;101900.03;;;19.09
69704;BMP280;56967;43.538;-5.646;2023-03-14T15:07:42;101897.84;;;18.90